| time (UTC) | temp C | wind direction | speed KPH | gust KPH | rain 1hr cm | rain 24hr cm | rain mn cm | humidity % | barometer mb |
| 20260831204518 | 32 | 227 | 3.2 | 14.5 | 0.00 | 0.00 | 0.00 | 54 | 1013.1 |
| 20260831203015 | 31 | 260 | 0.0 | 9.7 | 0.00 | 0.00 | 0.00 | 57 | 1013.3 |
| 20260831201512 | 32 | 198 | 3.2 | 9.7 | 0.00 | 0.00 | 0.00 | 56 | 1013.4 |
| 20260831200009 | 31 | 192 | 4.8 | 9.7 | 0.00 | 0.00 | 0.00 | 58 | 1013.5 |
| 20260831194507 | 31 | 263 | 1.6 | 6.4 | 0.00 | 0.00 | 0.00 | 60 | 1013.5 |
| 20260831193006 | 31 | 246 | 3.2 | 11.3 | 0.00 | 0.00 | 0.00 | 59 | 1013.6 |
| 20260831191504 | 30 | 261 | 3.2 | 11.3 | 0.00 | 0.00 | 0.00 | 59 | 1013.5 |
| 20260831190005 | 30 | 191 | 3.2 | 11.3 | 0.00 | 0.00 | 0.00 | 63 | 1013.6 |
| 20260831184618 | 30 | 263 | 0.0 | 6.4 | 0.00 | 0.00 | 0.00 | 64 | 1013.7 |
| 20260831183057 | 29 | 251 | 1.6 | 8.0 | 0.00 | 0.00 | 0.00 | 65 | 1013.8 |
| 20260831181600 | 29 | 257 | 3.2 | 6.4 | 0.00 | 0.00 | 0.00 | 66 | 1013.9 |
| 20260831181507 | 29 | 256 | 3.2 | 6.4 | 0.00 | 0.00 | 0.00 | 66 | 1013.9 |
| 20260831180053 | 28 | 320 | 1.6 | 6.4 | 0.00 | 0.00 | 0.00 | 67 | 1013.9 |
| 20260831174606 | 28 | 325 | 1.6 | 6.4 | 0.00 | 0.00 | 0.00 | 70 | 1013.9 |
| 20260831173054 | 28 | 273 | 4.8 | 12.9 | 0.00 | 0.00 | 0.00 | 65 | 1013.9 |
| 20260831171548 | 28 | 252 | 3.2 | 6.4 | 0.00 | 0.00 | 0.00 | 69 | 1013.9 |
| 20260831170045 | 27 | 211 | 0.0 | 9.7 | 0.00 | 0.00 | 0.00 | 69 | 1013.6 |
| 20260831164551 | 27 | 335 | 1.6 | 8.0 | 0.00 | 0.00 | 0.00 | 71 | 1013.5 |
| 20260831163039 | 26 | 306 | 1.6 | 9.7 | 0.00 | 0.00 | 0.00 | 74 | 1013.5 |
| 20260831161535 | 26 | 340 | 1.6 | 8.0 | 0.00 | 0.00 | 0.00 | 75 | 1013.2 |
| 20260831160031 | 25 | 308 | 4.8 | 12.9 | 0.00 | 0.00 | 0.00 | 76 | 1013.1 |
| 20260831154529 | 25 | 313 | 4.8 | 14.5 | 0.00 | 0.00 | 0.00 | 77 | 1013.0 |
| 20260831153024 | 25 | 300 | 6.4 | 12.9 | 0.00 | 0.00 | 0.00 | 78 | 1012.9 |
| 20260831151522 | 24 | 327 | 1.6 | 12.9 | 0.00 | 0.00 | 0.00 | 78 | 1012.6 |
| 20260831150021 | 23 | 346 | 4.8 | 16.1 | 0.00 | 0.00 | 0.00 | 80 | 1012.5 |
| 20260831144521 | 22 | 288 | 3.2 | 11.3 | 0.00 | 0.00 | 0.00 | 81 | 1012.7 |
| 20260831143021 | 22 | 350 | 3.2 | 14.5 | 0.00 | 0.00 | 0.00 | 81 | 1012.4 |
| 20260831141520 | 22 | 324 | 8.0 | 20.9 | 0.00 | 0.00 | 0.00 | 81 | 1012.2 |
| 20260831140019 | 22 | 349 | 6.4 | 12.9 | 0.00 | 0.00 | 0.00 | 82 | 1012.4 |
| 20260831134520 | 22 | 286 | 3.2 | 6.4 | 0.00 | 0.00 | 0.00 | 81 | 1012.3 |
| 20260831133018 | 22 | 254 | 3.2 | 8.0 | 0.00 | 0.00 | 0.00 | 80 | 1011.8 |
| 20260831131519 | 22 | 282 | 4.8 | 16.1 | 0.00 | 0.00 | 0.00 | 79 | 1011.4 |
| 20260831130016 | 23 | 325 | 6.4 | 27.4 | 0.00 | 0.00 | 0.00 | 79 | 1010.9 |
| 20260831124515 | 23 | 304 | 12.9 | 38.6 | 0.00 | 0.00 | 0.00 | 79 | 1011.4 |
| 20260831123014 | 23 | 327 | 16.1 | 30.6 | 0.00 | 0.00 | 0.00 | 81 | 1011.9 |
| 20260831121522 | 23 | 283 | 14.5 | 29.0 | 0.00 | 0.00 | 0.00 | 83 | 1012.3 |
| 20260831120015 | 23 | 213 | 12.9 | 25.7 | 0.00 | 0.00 | 0.00 | 84 | 1012.4 |
| 20260831114507 | 24 | 214 | 6.4 | 19.3 | 0.00 | 0.00 | 0.00 | 82 | 1011.4 |
| 20260831113006 | 24 | 232 | 9.7 | 22.5 | 0.00 | 0.00 | 0.00 | 82 | 1011.3 |
| 20260831111504 | 23 | 231 | 4.8 | 14.5 | 0.00 | 0.00 | 0.00 | 85 | 1010.8 |
| 20260831104603 | 23 | 257 | 6.4 | 14.5 | 0.00 | 0.00 | 0.00 | 86 | 1010.5 |
| 20260831103108 | 23 | 232 | 4.8 | 12.9 | 0.00 | 0.00 | 0.00 | 86 | 1010.4 |
| 20260831101601 | 23 | 252 | 3.2 | 11.3 | 0.00 | 0.00 | 0.00 | 86 | 1010.3 |
| 20260831100059 | 23 | 256 | 4.8 | 12.9 | 0.00 | 0.00 | 0.00 | 85 | 1010.1 |
| 20260831094607 | 23 | 284 | 3.2 | 9.7 | 0.00 | 0.00 | 0.00 | 83 | 1010.2 |
| 20260831093139 | 23 | 256 | 1.6 | 4.8 | 0.00 | 0.00 | 0.00 | 83 | 1009.9 |
| 20260831091553 | 23 | 278 | 3.2 | 8.0 | 0.00 | 0.00 | 0.00 | 83 | 1009.8 |
| 20260831090051 | 23 | 248 | 1.6 | 4.8 | 0.00 | 0.00 | 0.00 | 83 | 1009.5 |
| 20260831084630 | 23 | 281 | 1.6 | 4.8 | 0.00 | 0.00 | 0.00 | 84 | 1009.5 |
| 20260831083051 | 23 | 242 | 0.0 | 3.2 | 0.00 | 0.00 | 0.00 | 84 | 1009.3 |
| 20260831081548 | 23 | 232 | 0.0 | 4.8 | 0.00 | 0.00 | 0.00 | 84 | 1009.3 |
| 20260831080114 | 23 | 185 | 1.6 | 4.8 | 0.00 | 0.00 | 0.00 | 85 | 1009.3 |
| 20260831074549 | 23 | 286 | 0.0 | 3.2 | 0.00 | 0.00 | 0.00 | 85 | 1009.2 |
| 20260831073046 | 23 | 286 | 3.2 | 6.4 | 0.00 | 0.00 | 0.00 | 86 | 1009.2 |
| 20260831071549 | 22 | 297 | 1.6 | 3.2 | 0.00 | 0.00 | 0.00 | 87 | 1009.3 |
| 20260831070046 | 22 | 304 | 0.0 | 0.0 | 0.00 | 0.00 | 0.00 | 88 | 1009.6 |
| 20260831064552 | 22 | 304 | 0.0 | 1.6 | 0.00 | 0.00 | 0.00 | 87 | 1009.7 |
| 20260831063101 | 22 | 304 | 0.0 | 3.2 | 0.00 | 0.00 | 0.00 | 88 | 1009.7 |
| 20260831061542 | 23 | 327 | 0.0 | 3.2 | 0.00 | 0.00 | 0.00 | 86 | 1009.6 |
| 20260831060040 | 23 | 325 | 1.6 | 4.8 | 0.00 | 0.00 | 0.00 | 87 | 1009.3 |
| 20260831054538 | 23 | 300 | 1.6 | 3.2 | 0.00 | 0.00 | 0.00 | 88 | 1009.1 |
| 20260831053043 | 22 | 300 | 0.0 | 1.6 | 0.00 | 0.00 | 0.00 | 89 | 1009.0 |
| 20260831051540 | 23 | 300 | 0.0 | 3.2 | 0.00 | 0.00 | 0.00 | 88 | 1008.9 |
| 20260831050033 | 23 | 300 | 0.0 | 3.2 | 0.00 | 0.00 | 0.00 | 88 | 1008.9 |
| 20260831044532 | 23 | 300 | 0.0 | 3.2 | 0.00 | 0.00 | 0.00 | 86 | 1009.0 |
| 20260831043030 | 23 | 300 | 1.6 | 3.2 | 0.00 | 0.00 | 0.00 | 86 | 1009.1 |
| 20260831041530 | 24 | 300 | 0.0 | 1.6 | 0.00 | 0.00 | 0.00 | 86 | 1009.0 |
| 20260831040036 | 23 | 293 | 0.0 | 6.4 | 0.00 | 0.00 | 0.00 | 87 | 1009.1 |
| 20260831034528 | 24 | 308 | 1.6 | 4.8 | 0.00 | 0.00 | 0.00 | 88 | 1008.9 |
| 20260831033030 | 24 | 313 | 4.8 | 8.0 | 0.00 | 0.00 | 0.00 | 88 | 1008.9 |
| 20260831031527 | 25 | 309 | 0.0 | 3.2 | 0.00 | 0.00 | 0.00 | 87 | 1009.0 |
| 20260831030027 | 24 | 309 | 1.6 | 4.8 | 0.00 | 0.00 | 0.00 | 88 | 1008.9 |
| 20260831024527 | 25 | 303 | 0.0 | 0.0 | 0.00 | 0.00 | 0.00 | 87 | 1008.9 |
| 20260831023025 | 25 | 303 | 0.0 | 3.2 | 0.00 | 0.00 | 0.00 | 88 | 1008.8 |
| 20260831021523 | 26 | 261 | 0.0 | 1.6 | 0.00 | 0.00 | 0.00 | 85 | 1008.7 |
| 20260831020022 | 26 | 261 | 0.0 | 0.0 | 0.00 | 0.00 | 0.00 | 83 | 1008.5 |
| 20260831014523 | 27 | 261 | 0.0 | 0.0 | 0.00 | 0.00 | 0.00 | 78 | 1008.4 |
| 20260831013120 | 28 | 261 | 0.0 | 0.0 | 0.00 | 0.00 | 0.00 | 75 | 1008.3 |
| 20260831011523 | 29 | 261 | 0.0 | 0.0 | 0.00 | 0.00 | 0.00 | 72 | 1008.2 |
| 20260831010020 | 30 | 261 | 0.0 | 3.2 | 0.00 | 0.00 | 0.00 | 67 | 1008.1 |
| 20260831004518 | 31 | 261 | 0.0 | 0.0 | 0.00 | 0.00 | 0.00 | 61 | 1008.0 |
| 20260831003018 | 32 | 261 | 0.0 | 0.0 | 0.00 | 0.00 | 0.00 | 62 | 1008.1 |
| 20260831001517 | 32 | 261 | 0.0 | 3.2 | 0.00 | 0.00 | 0.00 | 62 | 1008.1 |
| 20260831000020 | 32 | 261 | 1.6 | 3.2 | 0.00 | 0.00 | 0.00 | 59 | 1008.1 |
| 20260830234510 | 32 | 261 | 0.0 | 3.2 | 0.00 | 0.00 | 0.00 | 59 | 1008.1 |
| 20260830233006 | 32 | 223 | 0.0 | 3.2 | 0.00 | 0.00 | 0.00 | 60 | 1008.1 |
| 20260830231507 | 32 | 223 | 0.0 | 4.8 | 0.00 | 0.00 | 0.00 | 61 | 1008.1 |
| 20260830230005 | 32 | 234 | 1.6 | 6.4 | 0.00 | 0.00 | 0.00 | 59 | 1008.1 |
| 20260830224504 | 32 | 243 | 0.0 | 9.7 | 0.00 | 0.00 | 0.00 | 61 | 1007.9 |
| 20260830221501 | 32 | 237 | 4.8 | 9.7 | 0.00 | 0.00 | 0.00 | 58 | 1007.9 |
| 20260830214558 | 31 | 256 | 4.8 | 12.9 | 0.00 | 0.00 | 0.00 | 58 | 1008.1 |
| 20260830213055 | 31 | 274 | 4.8 | 14.5 | 0.00 | 0.00 | 0.00 | 57 | 1008.0 |
| 20260830211556 | 30 | 216 | 9.7 | 20.9 | 0.00 | 0.00 | 0.00 | 57 | 1007.9 |